createdAt,value
2022-10-20T00:31:17.538Z,0
2022-10-20T00:31:57.987Z,0
2022-10-20T00:32:38.675Z,0
2022-10-20T00:38:02.246Z,0
2022-10-20T00:38:42.719Z,0
2022-10-20T00:39:23.886Z,0
2022-10-20T00:40:04.341Z,0
2022-10-20T00:40:44.827Z,0
2022-10-20T00:41:25.331Z,0
2022-10-20T00:42:05.782Z,0
2022-10-20T00:42:46.275Z,0
2022-10-20T00:43:26.835Z,0
2022-10-20T00:50:52.124Z,0
2022-10-20T00:51:32.667Z,0
2022-10-20T00:52:13.098Z,0
2022-10-20T00:52:53.600Z,0
2022-10-20T00:53:34.058Z,0
2022-10-20T00:54:14.521Z,0
2022-10-20T00:54:55.024Z,0
2022-10-20T00:55:35.495Z,0
2022-10-20T00:56:15.985Z,0
2022-10-20T00:56:56.505Z,0
2022-10-20T00:57:37.229Z,0
2022-10-20T01:05:02.236Z,0
2022-10-20T01:05:42.747Z,0
2022-10-20T01:06:23.196Z,0
2022-10-20T01:07:03.797Z,0
2022-10-20T01:07:44.274Z,0
2022-10-20T01:08:24.827Z,0
2022-10-20T01:09:05.328Z,0
2022-10-20T01:09:45.718Z,0
2022-10-20T01:10:26.187Z,0
2022-10-20T01:11:06.642Z,0
2022-10-20T01:11:47.169Z,0
2022-10-20T01:19:13.323Z,0
2022-10-20T01:19:53.791Z,0
2022-10-20T01:20:34.234Z,0
2022-10-20T01:21:14.690Z,0
2022-10-20T01:21:55.141Z,0
2022-10-20T01:22:35.603Z,0
2022-10-20T01:23:16.116Z,0
2022-10-20T01:23:56.568Z,0
2022-10-20T01:24:37.038Z,0
2022-10-20T01:32:02.329Z,0
2022-10-20T01:32:42.760Z,0
2022-10-20T01:33:23.316Z,0
2022-10-20T01:34:03.798Z,0
2022-10-20T01:34:45.914Z,0
2022-10-20T01:35:24.811Z,0
2022-10-20T01:36:05.287Z,0
2022-10-20T01:37:34.218Z,0
2022-10-20T01:38:06.766Z,0
2022-10-20T01:46:12.609Z,0
2022-10-20T01:46:53.074Z,0
2022-10-20T01:47:33.655Z,0
2022-10-20T01:48:13.982Z,0
2022-10-20T01:48:54.460Z,0
2022-10-20T01:51:07.398Z,0
2022-10-20T01:51:47.712Z,0
2022-10-20T01:52:28.146Z,0
2022-10-20T01:57:51.969Z,0
2022-10-20T01:58:32.414Z,0
2022-10-20T01:59:12.910Z,0
2022-10-20T01:59:53.440Z,0
2022-10-20T02:00:33.872Z,0
2022-10-20T02:01:14.445Z,0
2022-10-20T02:01:54.858Z,0
2022-10-20T02:02:35.454Z,0
2022-10-20T02:03:15.780Z,0
2022-10-20T02:03:56.239Z,0
2022-10-20T02:04:36.741Z,0
2022-10-20T02:12:02.249Z,0
2022-10-20T02:12:42.788Z,0
2022-10-20T02:13:23.274Z,0
2022-10-20T02:14:03.799Z,0
2022-10-20T02:14:44.380Z,0
2022-10-20T02:15:24.710Z,0
2022-10-20T02:16:05.207Z,0
2022-10-20T02:16:45.674Z,0
2022-10-20T02:17:26.222Z,0
2022-10-20T02:18:06.702Z,0
2022-10-20T02:25:31.988Z,0
2022-10-20T02:26:12.552Z,0
2022-10-20T02:26:53.036Z,0
2022-10-20T02:27:33.557Z,0
2022-10-20T02:28:14.024Z,0
2022-10-20T02:33:25.981Z,0
2022-10-20T02:34:06.387Z,0
2022-10-20T02:34:46.940Z,0
2022-10-20T02:40:10.844Z,0
2022-10-20T02:40:51.362Z,0
2022-10-20T02:41:31.801Z,0
2022-10-20T02:42:12.432Z,0
2022-10-20T02:42:52.860Z,0
2022-10-20T02:43:33.347Z,0
2022-10-20T02:44:13.830Z,0
2022-10-20T02:44:54.343Z,0
2022-10-20T02:45:34.751Z,0
2022-10-20T02:53:40.493Z,0
2022-10-20T02:54:20.901Z,0
2022-10-20T02:55:01.385Z,0
2022-10-20T02:55:41.894Z,0
2022-10-20T02:56:23.640Z,0
2022-10-20T02:57:02.881Z,0
2022-10-20T02:57:43.372Z,0
2022-10-20T02:58:23.907Z,0
2022-10-20T02:59:04.327Z,0
2022-10-20T02:59:44.855Z,0
2022-10-20T03:00:25.368Z,0
2022-10-20T03:07:50.670Z,0
2022-10-20T03:08:31.170Z,0
2022-10-20T03:09:11.632Z,0
2022-10-20T03:09:52.181Z,0
2022-10-20T03:10:32.600Z,0
2022-10-20T03:11:13.085Z,0
2022-10-20T03:11:53.559Z,0
2022-10-20T03:12:34.066Z,0
2022-10-20T03:21:20.878Z,0
2022-10-20T03:22:01.373Z,0
2022-10-20T03:22:41.868Z,0
2022-10-20T03:23:22.387Z,0
2022-10-20T03:24:02.865Z,0
2022-10-20T03:24:43.414Z,0
2022-10-20T03:25:23.828Z,0
2022-10-20T03:26:04.326Z,0
2022-10-20T03:26:44.797Z,0
2022-10-20T03:27:25.253Z,0
2022-10-20T03:34:10.558Z,0
2022-10-20T03:34:51.024Z,0
2022-10-20T03:35:31.540Z,0
2022-10-20T03:36:12.090Z,0
2022-10-20T03:36:52.566Z,0
2022-10-20T03:37:33.072Z,0
2022-10-20T03:38:13.561Z,0
2022-10-20T03:38:54.073Z,0
2022-10-20T03:39:34.548Z,0
2022-10-20T03:40:15.059Z,0
2022-10-20T03:46:20.578Z,0
2022-10-20T03:47:01.016Z,0
2022-10-20T03:47:41.497Z,0
2022-10-20T03:49:02.498Z,0
2022-10-20T03:49:42.971Z,0
2022-10-20T03:50:23.465Z,0
2022-10-20T03:51:03.998Z,0
2022-10-20T03:51:44.496Z,0
2022-10-20T03:52:24.964Z,0
2022-10-20T04:00:30.817Z,0
2022-10-20T04:01:11.346Z,0
2022-10-20T04:01:51.897Z,0
2022-10-20T04:02:32.340Z,0
2022-10-20T04:07:44.825Z,0
2022-10-20T04:08:25.430Z,0
2022-10-20T04:09:05.911Z,0
2022-10-20T04:14:29.710Z,0
2022-10-20T04:15:10.929Z,0
2022-10-20T04:15:51.309Z,0
2022-10-20T04:16:33.569Z,0
2022-10-20T04:22:41.553Z,0
2022-10-20T04:23:22.067Z,0
2022-10-20T04:24:03.039Z,0
2022-10-20T04:31:34.518Z,0
2022-10-20T04:32:15.118Z,0
2022-10-20T04:34:27.993Z,0
2022-10-20T04:36:29.442Z,0
2022-10-20T04:37:10.052Z,0
2022-10-20T04:37:50.773Z,0
2022-10-20T04:38:31.436Z,0
2022-10-20T04:39:11.988Z,0
2022-10-20T04:39:52.468Z,0
2022-10-20T04:40:32.980Z,0
2022-10-20T04:41:13.977Z,0
2022-10-20T04:42:01.694Z,0
2022-10-20T04:42:40.735Z,0
2022-10-20T04:43:21.693Z,0
2022-10-20T04:45:21.449Z,0
2022-10-20T04:46:02.571Z,0
2022-10-20T04:46:41.660Z,0
2022-10-20T04:50:56.821Z,0
2022-10-20T04:51:37.080Z,0
2022-10-20T04:52:17.673Z,0
2022-10-20T04:52:58.190Z,0
2022-10-20T04:55:41.198Z,0
2022-10-20T04:56:22.547Z,0
2022-10-20T04:57:04.060Z,0
2022-10-20T04:57:44.532Z,0
2022-10-20T04:58:24.988Z,0
2022-10-20T04:59:07.337Z,0
2022-10-20T05:04:31.049Z,0
2022-10-20T05:05:11.477Z,0
2022-10-20T05:05:52.324Z,0
2022-10-20T05:06:32.822Z,0
2022-10-20T05:07:54.111Z,0
2022-10-20T05:08:34.607Z,0
2022-10-20T05:09:15.182Z,0
2022-10-20T05:09:55.720Z,0
2022-10-20T05:13:29.691Z,0
2022-10-20T05:14:10.365Z,0
2022-10-20T05:14:50.819Z,0
2022-10-20T05:19:34.491Z,0
2022-10-20T05:20:14.943Z,0
2022-10-20T05:21:08.144Z,0
2022-10-20T05:21:36.114Z,0
2022-10-20T05:22:16.551Z,0
2022-10-20T05:22:57.233Z,0
2022-10-20T05:26:37.880Z,0
2022-10-20T05:27:18.222Z,0
2022-10-20T05:27:58.791Z,0
2022-10-20T05:32:42.591Z,0
2022-10-20T05:33:23.423Z,0
2022-10-20T05:34:03.902Z,0
2022-10-20T05:34:44.416Z,0
2022-10-20T05:35:24.914Z,0
2022-10-20T05:36:05.606Z,0
2022-10-20T05:36:46.004Z,0
2022-10-20T05:37:27.260Z,0
2022-10-20T05:38:07.249Z,0
2022-10-20T05:42:52.399Z,0
2022-10-20T05:43:32.904Z,0
2022-10-20T05:44:14.227Z,0
2022-10-20T05:44:54.270Z,0
2022-10-20T05:45:34.786Z,0
2022-10-20T05:46:16.124Z,0
2022-10-20T05:46:57.718Z,0
2022-10-20T06:31:45.959Z,0
2022-10-20T06:32:26.475Z,0
2022-10-20T06:33:08.310Z,0
2022-10-20T06:33:48.826Z,0
2022-10-20T06:34:29.399Z,0
2022-10-20T06:35:09.995Z,0
2022-10-20T06:35:50.813Z,0
2022-10-20T06:36:31.547Z,0
2022-10-20T06:42:37.842Z,0
2022-10-20T06:43:18.915Z,0
2022-10-20T06:43:59.570Z,0
2022-10-20T06:44:40.387Z,0
2022-10-20T06:45:21.082Z,0
2022-10-20T06:49:01.853Z,0
2022-10-20T06:49:43.456Z,0
2022-10-20T06:50:24.183Z,0
2022-10-20T06:51:04.743Z,0
2022-10-20T06:53:06.952Z,0
2022-10-20T06:53:47.537Z,0
2022-10-20T06:54:28.164Z,0
2022-10-20T06:55:08.718Z,0
2022-10-20T07:02:39.708Z,0
2022-10-20T07:03:20.653Z,0
2022-10-20T07:04:02.245Z,0
2022-10-20T07:04:42.935Z,0
2022-10-20T07:06:45.481Z,0
2022-10-20T07:07:26.109Z,0
2022-10-20T07:08:06.679Z,0
2022-10-20T07:08:47.301Z,5
2022-10-20T07:09:27.785Z,5
2022-10-20T07:10:08.351Z,5
2022-10-20T07:10:48.862Z,5
2022-10-20T07:11:29.352Z,5
2022-10-20T07:12:09.886Z,5
2022-10-20T07:18:56.046Z,5
2022-10-20T07:19:36.523Z,5
2022-10-20T07:20:17.136Z,5
2022-10-20T07:22:19.275Z,5
2022-10-20T07:23:00.150Z,5
2022-10-20T07:23:40.715Z,5
2022-10-20T07:24:21.325Z,5
2022-10-20T07:25:02.941Z,10
2022-10-20T07:27:04.442Z,10
2022-10-20T07:27:45.657Z,10
2022-10-20T07:28:26.192Z,10
2022-10-20T07:29:07.062Z,10
2022-10-20T07:29:47.377Z,10
2022-10-20T07:30:28.003Z,10
2022-10-20T07:31:09.435Z,10
2022-10-20T07:35:14.859Z,15
2022-10-20T07:35:55.400Z,15
2022-10-20T07:36:36.884Z,15
2022-10-20T07:37:17.679Z,15
2022-10-20T07:37:58.063Z,15
2022-10-20T07:38:38.741Z,15
2022-10-20T07:42:45.859Z,15
2022-10-20T07:43:26.414Z,15
2022-10-20T07:44:07.546Z,15
2022-10-20T07:44:47.840Z,15
2022-10-20T07:53:02.078Z,15
2022-10-20T07:53:42.765Z,15
2022-10-20T07:54:23.858Z,15
2022-10-20T07:55:17.497Z,15
2022-10-20T07:57:49.424Z,15
2022-10-20T07:58:29.883Z,15
2022-10-20T07:59:10.367Z,15
2022-10-20T07:59:51.608Z,15
2022-10-20T08:00:31.802Z,15
2022-10-20T08:01:12.288Z,10
2022-10-20T08:06:38.994Z,10
2022-10-20T08:07:18.250Z,10
2022-10-20T08:07:58.846Z,10
2022-10-20T08:08:40.566Z,10
2022-10-20T08:09:21.315Z,10
2022-10-20T08:10:02.004Z,10
2022-10-20T08:10:42.398Z,10
2022-10-20T08:14:52.269Z,10
2022-10-20T08:15:32.761Z,10
2022-10-20T08:16:23.761Z,15
2022-10-20T08:18:30.760Z,15
2022-10-20T08:19:23.249Z,15
2022-10-20T08:24:36.748Z,15
2022-10-20T08:27:52.315Z,15
2022-10-20T08:28:32.690Z,15
2022-10-20T08:29:13.212Z,15
2022-10-20T08:32:36.171Z,15
2022-10-20T08:33:16.463Z,15
2022-10-20T08:33:57.097Z,15
2022-10-20T08:34:37.705Z,15
2022-10-20T08:35:18.241Z,15
2022-10-20T08:35:58.800Z,15
2022-10-20T08:36:39.393Z,15
2022-10-20T08:37:19.920Z,15
2022-10-20T08:44:06.230Z,10
2022-10-20T08:44:46.761Z,10
2022-10-20T08:45:27.263Z,10
2022-10-20T08:46:08.971Z,5
2022-10-20T08:52:16.280Z,10
2022-10-20T08:52:57.523Z,10
2022-10-20T08:53:38.975Z,10
2022-10-20T08:54:20.061Z,10
2022-10-20T08:55:00.615Z,10
2022-10-20T08:57:06.565Z,10
2022-10-20T08:57:48.109Z,10
2022-10-20T08:58:28.629Z,10
2022-10-20T08:59:09.215Z,10
2022-10-20T08:59:50.548Z,10
2022-10-20T09:00:30.978Z,10
2022-10-20T09:04:37.783Z,10
2022-10-20T09:08:18.775Z,10
2022-10-20T09:08:59.440Z,10
2022-10-20T09:09:39.970Z,10
2022-10-20T09:13:03.397Z,10
2022-10-20T09:13:43.977Z,10
2022-10-20T09:17:23.592Z,10
2022-10-20T09:18:05.011Z,10
2022-10-20T09:18:46.143Z,10
2022-10-20T09:19:27.137Z,10
2022-10-20T09:22:12.959Z,10
2022-10-20T09:22:53.969Z,10
2022-10-20T09:26:53.483Z,10
2022-10-20T09:27:14.644Z,10
2022-10-20T09:27:55.188Z,10
2022-10-20T09:33:31.138Z,10
2022-10-20T09:37:15.002Z,10
2022-10-20T09:37:57.539Z,10
2022-10-20T09:38:39.489Z,10
2022-10-20T09:39:20.422Z,10
2022-10-20T09:40:01.897Z,10
2022-10-20T09:44:06.352Z,5
2022-10-20T09:44:46.940Z,5
2022-10-20T09:47:25.947Z,5
2022-10-20T09:48:15.968Z,5
2022-10-20T09:48:57.024Z,5
2022-10-20T09:51:28.023Z,5
2022-10-20T09:52:09.659Z,5
2022-10-20T09:52:50.085Z,5
2022-10-20T09:56:12.620Z,5
2022-10-20T09:56:53.139Z,5
2022-10-20T09:57:33.637Z,5
2022-10-20T09:58:17.055Z,5
2022-10-20T09:58:55.679Z,5
2022-10-20T09:59:36.194Z,5
2022-10-20T10:00:35.698Z,5
2022-10-20T10:05:42.903Z,5
2022-10-20T10:06:22.995Z,5
2022-10-20T10:07:03.577Z,5
2022-10-20T10:09:46.994Z,5
2022-10-20T10:10:27.555Z,5
2022-10-20T10:11:07.983Z,5
2022-10-20T10:11:48.402Z,5
2022-10-20T10:12:28.951Z,5
2022-10-20T10:13:09.547Z,5
2022-10-20T10:13:50.270Z,5
2022-10-20T10:14:30.843Z,5
2022-10-20T10:15:11.490Z,5
2022-10-20T10:19:16.701Z,5
2022-10-20T10:19:57.320Z,5
2022-10-20T10:20:37.917Z,5
2022-10-20T10:21:18.747Z,5
2022-10-20T10:21:59.221Z,5
2022-10-20T10:22:40.115Z,5
2022-10-20T10:23:20.402Z,5
2022-10-20T10:24:41.480Z,5
2022-10-20T10:32:07.073Z,5
2022-10-20T10:32:47.551Z,5
2022-10-20T10:33:28.074Z,5
2022-10-20T10:34:08.604Z,5
2022-10-20T10:34:49.149Z,5
2022-10-20T10:35:29.608Z,5
2022-10-20T10:36:10.113Z,5
2022-10-20T10:36:50.711Z,5
2022-10-20T10:37:33.784Z,5
2022-10-20T10:44:56.931Z,5
2022-10-20T10:45:37.560Z,5
2022-10-20T10:46:18.222Z,5
2022-10-20T10:46:58.705Z,5
2022-10-20T10:47:40.194Z,5
2022-10-20T10:50:18.009Z,5
2022-10-20T10:50:58.452Z,5
2022-10-20T10:51:39.711Z,5
2022-10-20T10:57:14.637Z,5
2022-10-20T10:57:55.102Z,5
2022-10-20T10:58:35.665Z,5
2022-10-20T11:02:39.513Z,5
2022-10-20T11:03:21.199Z,5
2022-10-20T11:04:01.514Z,5
2022-10-20T11:04:41.988Z,5
2022-10-20T11:05:23.080Z,5
2022-10-20T11:06:03.620Z,5
2022-10-20T11:09:30.857Z,5
2022-10-20T11:10:52.915Z,5
2022-10-20T11:14:59.370Z,5
2022-10-20T11:15:39.938Z,5
2022-10-20T11:16:22.186Z,5
2022-10-20T11:17:04.216Z,5
2022-10-20T11:21:09.654Z,5
2022-10-20T11:21:50.230Z,5
2022-10-20T11:22:32.882Z,5
2022-10-20T11:33:08.419Z,5
2022-10-20T11:33:49.034Z,5
2022-10-20T11:34:29.520Z,5
2022-10-20T11:37:19.783Z,5
2022-10-20T11:46:34.074Z,5
2022-10-20T11:47:14.339Z,5
2022-10-20T11:47:54.891Z,5
2022-10-20T11:48:35.423Z,5
2022-10-20T11:52:22.199Z,0
2022-10-20T12:32:13.221Z,10
2022-10-20T12:32:54.378Z,10
2022-10-20T12:33:35.364Z,10
2022-10-20T12:34:17.446Z,10
2022-10-20T12:34:59.573Z,10
2022-10-20T12:35:40.578Z,10
2022-10-20T12:36:21.729Z,10
2022-10-20T12:38:02.554Z,15
2022-10-20T12:38:44.049Z,15
2022-10-20T12:39:24.788Z,15
2022-10-20T12:41:27.846Z,15
2022-10-20T12:42:08.862Z,15
2022-10-20T12:42:49.933Z,15
2022-10-20T12:47:44.359Z,15
2022-10-20T12:48:25.398Z,10
2022-10-20T12:49:06.753Z,10
2022-10-20T12:49:46.445Z,10
2022-10-20T12:52:28.686Z,10
2022-10-20T12:53:09.135Z,15
2022-10-20T12:53:49.693Z,15
2022-10-20T12:54:30.207Z,15
2022-10-20T12:58:04.489Z,15
2022-10-20T12:58:44.904Z,15
2022-10-20T12:59:25.435Z,15
2022-10-20T13:00:06.062Z,15
2022-10-20T13:04:09.702Z,10
2022-10-20T13:04:50.263Z,10
2022-10-20T13:05:32.102Z,10
2022-10-20T13:06:13.403Z,10
2022-10-20T13:09:40.395Z,10
2022-10-20T13:13:14.356Z,10
2022-10-20T13:17:59.530Z,10
2022-10-20T13:18:40.299Z,10
2022-10-20T13:19:21.555Z,10
2022-10-20T13:20:02.257Z,10
2022-10-20T13:20:43.209Z,10
2022-10-20T13:21:23.466Z,10
2022-10-20T13:28:09.218Z,10
2022-10-20T13:28:49.875Z,10
2022-10-20T13:29:30.327Z,10
2022-10-20T13:30:11.122Z,10
2022-10-20T13:30:52.103Z,10
2022-10-20T13:31:33.063Z,10
2022-10-20T13:32:13.978Z,15
2022-10-20T13:38:59.359Z,20
2022-10-20T13:39:39.805Z,20
2022-10-20T13:40:23.691Z,20
2022-10-20T13:41:42.462Z,20
2022-10-20T13:42:22.039Z,20
2022-10-20T13:43:02.537Z,20
2022-10-20T13:43:43.110Z,20
2022-10-20T13:44:25.867Z,20
2022-10-20T13:48:29.263Z,20
2022-10-20T13:49:10.368Z,20
2022-10-20T13:49:52.860Z,20
2022-10-20T13:50:31.501Z,20
2022-10-20T13:51:12.662Z,20
2022-10-20T13:51:52.621Z,20
2022-10-20T13:52:33.526Z,20
2022-10-20T13:53:13.897Z,25
2022-10-20T13:59:19.481Z,20
2022-10-20T13:59:59.948Z,20
2022-10-20T14:00:40.588Z,20
2022-10-20T14:01:22.356Z,25
2022-10-20T14:02:02.835Z,25
2022-10-20T14:02:43.649Z,25
2022-10-20T14:09:29.318Z,30
2022-10-20T14:10:09.847Z,30
2022-10-20T14:10:51.155Z,30
2022-10-20T14:11:31.746Z,30
2022-10-20T14:12:12.280Z,30
2022-10-20T14:12:52.844Z,30
2022-10-20T14:13:33.496Z,30
2022-10-20T14:14:13.847Z,30
2022-10-20T14:18:59.019Z,25
2022-10-20T14:19:40.427Z,25
2022-10-20T14:20:20.566Z,25
2022-10-20T14:21:00.872Z,30
2022-10-20T14:21:41.310Z,25
2022-10-20T14:22:21.888Z,25
2022-10-20T14:23:02.397Z,30
2022-10-20T14:23:42.977Z,30
2022-10-20T14:24:23.923Z,30
2022-10-20T14:30:28.996Z,30
2022-10-20T14:31:09.529Z,30
2022-10-20T14:31:50.130Z,30
2022-10-20T14:32:30.642Z,30
2022-10-20T14:33:11.409Z,30
2022-10-20T14:33:52.002Z,30
2022-10-20T14:34:32.914Z,30
2022-10-20T14:35:13.405Z,30
2022-10-20T14:35:54.013Z,30
2022-10-20T14:41:19.275Z,20
2022-10-20T14:41:59.963Z,20
2022-10-20T14:42:40.468Z,15
2022-10-20T14:43:21.176Z,15
2022-10-20T14:44:03.491Z,15
2022-10-20T14:44:42.169Z,15
2022-10-20T14:47:20.895Z,15
2022-10-20T14:48:01.560Z,10
2022-10-20T14:48:42.414Z,10
2022-10-20T14:49:23.072Z,10
2022-10-20T14:52:05.410Z,10
2022-10-20T14:52:47.513Z,10
2022-10-20T14:53:26.401Z,10
2022-10-20T14:54:06.945Z,10
2022-10-20T14:54:48.391Z,10
2022-10-20T14:55:29.671Z,10
2022-10-20T14:59:35.770Z,10
2022-10-20T15:00:16.262Z,10
2022-10-20T15:00:57.629Z,10
2022-10-20T15:01:38.168Z,10
2022-10-20T15:02:18.713Z,10
2022-10-20T15:03:00.288Z,10
2022-10-20T15:03:39.933Z,10
2022-10-20T15:10:25.495Z,15
2022-10-20T15:11:05.918Z,20
2022-10-20T15:15:46.559Z,30
2022-10-20T15:16:27.195Z,30
2022-10-20T15:17:07.775Z,40
2022-10-20T15:21:51.256Z,20
2022-10-20T15:22:31.793Z,15
2022-10-20T15:23:12.318Z,15
2022-10-20T15:23:52.775Z,10
2022-10-20T15:24:33.338Z,10
2022-10-20T15:25:13.751Z,10
2022-10-20T15:25:54.308Z,10
2022-10-20T15:26:34.834Z,15
2022-10-20T15:27:55.843Z,15
2022-10-20T15:34:41.044Z,5
2022-10-20T15:35:21.593Z,5
2022-10-20T15:36:02.104Z,5
2022-10-20T15:36:42.693Z,5
2022-10-20T15:37:23.200Z,5
2022-10-20T15:38:03.716Z,5
2022-10-20T15:38:44.244Z,5
2022-10-20T15:39:24.693Z,5
2022-10-20T15:40:05.337Z,5
2022-10-20T15:40:46.027Z,5
2022-10-20T15:47:31.228Z,5
2022-10-20T15:48:11.696Z,5
2022-10-20T15:48:52.288Z,5
2022-10-20T15:49:32.795Z,5
2022-10-20T15:50:13.386Z,5
2022-10-20T15:50:53.873Z,5
2022-10-20T15:51:34.448Z,5
2022-10-20T15:52:15.093Z,5
2022-10-20T15:52:55.683Z,5
2022-10-20T15:55:41.010Z,0
2022-10-20T15:56:21.431Z,0
2022-10-20T15:59:58.194Z,0
2022-10-20T16:00:38.766Z,0
2022-10-20T16:01:19.264Z,0
2022-10-20T16:05:22.382Z,0
2022-10-20T16:06:02.795Z,0
2022-10-20T16:06:43.345Z,0
2022-10-20T16:07:23.886Z,0
2022-10-20T16:08:04.411Z,0
2022-10-20T16:08:44.997Z,0
2022-10-20T16:09:25.504Z,0
2022-10-20T16:10:06.011Z,0
2022-10-20T16:10:47.377Z,0
2022-10-20T16:16:12.815Z,0
2022-10-20T16:16:53.600Z,0
2022-10-20T16:17:33.999Z,0
2022-10-20T16:18:14.617Z,0
2022-10-20T16:18:55.169Z,0
2022-10-20T16:19:35.725Z,0
2022-10-20T16:20:16.264Z,0
2022-10-20T16:20:56.854Z,0
2022-10-20T16:27:42.190Z,0
2022-10-20T16:28:23.945Z,0
2022-10-20T16:35:39.191Z,0
2022-10-20T16:36:18.812Z,0
2022-10-20T16:36:59.455Z,0
2022-10-20T16:39:42.532Z,0
2022-10-20T16:40:23.333Z,0
2022-10-20T16:41:03.900Z,0
2022-10-20T16:41:44.367Z,0
2022-10-20T16:42:24.927Z,0
2022-10-20T16:43:46.905Z,0
2022-10-20T16:50:32.399Z,0
2022-10-20T16:51:12.986Z,0
2022-10-20T16:54:43.595Z,0
2022-10-20T16:55:24.093Z,0
2022-10-20T16:56:04.693Z,0
2022-10-20T17:00:08.356Z,0
2022-10-20T17:00:49.044Z,0
2022-10-20T17:01:30.177Z,0
2022-10-20T17:02:10.735Z,0
2022-10-20T17:02:51.235Z,0
2022-10-20T17:06:30.300Z,0
2022-10-20T17:07:10.921Z,0
2022-10-20T17:07:51.452Z,0
2022-10-20T17:12:35.097Z,0
2022-10-20T17:13:16.354Z,0
2022-10-20T17:13:56.776Z,0
2022-10-20T17:14:37.231Z,0
2022-10-20T17:15:17.724Z,0
2022-10-20T17:15:58.328Z,0
2022-10-20T17:16:38.851Z,0
2022-10-20T17:17:19.195Z,0
2022-10-20T17:17:59.705Z,0
2022-10-20T17:23:56.388Z,0
2022-10-20T17:24:37.012Z,0
2022-10-20T17:25:17.469Z,0
2022-10-20T17:25:58.288Z,0
2022-10-20T17:26:38.716Z,0
2022-10-20T17:29:16.911Z,0
2022-10-20T17:29:57.610Z,0
2022-10-20T17:30:38.095Z,0
2022-10-20T17:35:21.673Z,0
2022-10-20T17:36:02.270Z,0
2022-10-20T17:36:42.841Z,0
2022-10-20T17:37:23.401Z,0
2022-10-20T17:38:04.571Z,0
2022-10-20T17:38:44.434Z,0
2022-10-20T17:40:05.581Z,0
2022-10-20T17:40:46.668Z,0
2022-10-20T17:41:26.565Z,0
2022-10-20T17:46:52.330Z,0
2022-10-20T17:47:32.842Z,0
2022-10-20T17:48:13.343Z,0
2022-10-20T17:48:53.884Z,0
2022-10-20T17:49:34.382Z,0
2022-10-20T17:50:14.969Z,0
2022-10-20T17:50:55.489Z,0
2022-10-20T17:51:36.005Z,0
2022-10-20T17:52:16.529Z,0
2022-10-20T18:34:33.723Z,0
2022-10-20T18:35:14.290Z,0
2022-10-20T18:35:54.812Z,0
2022-10-20T18:41:18.637Z,0
2022-10-20T18:41:59.690Z,0
2022-10-20T18:42:40.017Z,0
2022-10-20T18:43:20.474Z,0
2022-10-20T18:44:01.011Z,0
2022-10-20T18:44:41.510Z,0
2022-10-20T18:45:23.748Z,0
2022-10-20T18:46:02.558Z,0
2022-10-20T18:46:43.041Z,0
2022-10-20T18:54:08.527Z,0
2022-10-20T18:54:48.959Z,0
2022-10-20T18:55:29.498Z,0
2022-10-20T18:56:09.964Z,0
2022-10-20T18:56:50.494Z,0
2022-10-20T18:57:30.894Z,0
2022-10-20T18:58:11.401Z,0
2022-10-20T18:58:51.967Z,0
2022-10-20T18:59:32.454Z,0
2022-10-20T19:00:12.948Z,0
2022-10-20T19:00:53.547Z,0
2022-10-20T19:06:18.436Z,0
2022-10-20T19:06:58.882Z,0
2022-10-20T19:07:39.648Z,0
2022-10-20T19:08:19.863Z,0
2022-10-20T19:09:00.479Z,0
2022-10-20T19:09:40.957Z,0
2022-10-20T19:10:21.451Z,0
2022-10-20T19:11:01.948Z,0
2022-10-20T19:11:42.483Z,0
2022-10-20T19:12:23.105Z,0
2022-10-20T19:19:08.495Z,0
2022-10-20T19:19:48.993Z,0
2022-10-20T19:20:29.477Z,0
2022-10-20T19:21:10.021Z,0
2022-10-20T19:21:50.584Z,0
2022-10-20T19:22:31.073Z,0
2022-10-20T19:23:52.063Z,0
2022-10-20T19:24:32.705Z,0
2022-10-20T19:25:13.160Z,0
2022-10-20T19:32:40.289Z,0
2022-10-20T19:33:19.286Z,0
2022-10-20T19:33:59.987Z,0
2022-10-20T19:34:41.678Z,0
2022-10-20T19:35:22.080Z,0
2022-10-20T19:36:02.448Z,0
2022-10-20T19:36:43.112Z,0
2022-10-20T19:44:08.739Z,0
2022-10-20T19:44:49.310Z,0
2022-10-20T19:45:29.781Z,0
2022-10-20T19:49:09.092Z,0
2022-10-20T19:49:49.324Z,0
2022-10-20T19:50:29.825Z,0
2022-10-20T19:51:10.318Z,0
2022-10-20T19:55:54.031Z,0
2022-10-20T19:56:34.538Z,0
2022-10-20T19:57:15.088Z,0
2022-10-20T19:57:55.603Z,0
2022-10-20T19:58:36.094Z,0
2022-10-20T19:59:16.761Z,0
2022-10-20T19:59:57.277Z,0
2022-10-20T20:00:37.859Z,0
2022-10-20T20:01:18.503Z,0
2022-10-20T20:05:23.921Z,0
2022-10-20T20:06:04.675Z,0
2022-10-20T20:06:45.661Z,0
2022-10-20T20:07:27.708Z,0
2022-10-20T20:08:08.422Z,0
2022-10-20T20:08:48.931Z,0
2022-10-20T20:14:13.988Z,0
2022-10-20T20:14:54.429Z,0
2022-10-20T20:15:34.971Z,0
2022-10-20T20:16:15.562Z,0
2022-10-20T20:16:55.989Z,0
2022-10-20T20:17:36.655Z,0
2022-10-20T20:18:16.850Z,0
2022-10-20T20:18:58.144Z,0
2022-10-20T20:19:38.713Z,0
2022-10-20T20:21:06.271Z,0
2022-10-20T20:21:46.789Z,0
2022-10-20T20:22:27.281Z,0
2022-10-20T20:23:07.798Z,0
2022-10-20T20:23:58.665Z,0
2022-10-20T20:24:28.738Z,0
2022-10-20T20:31:54.188Z,0
2022-10-20T20:32:36.952Z,0
2022-10-20T20:33:15.133Z,0
2022-10-20T20:33:55.676Z,0
2022-10-20T20:34:36.146Z,0
2022-10-20T20:35:16.681Z,0
2022-10-20T20:35:57.180Z,0
2022-10-20T20:37:18.137Z,0
2022-10-20T20:37:58.608Z,0
2022-10-20T20:43:24.272Z,0
2022-10-20T20:44:08.183Z,0
2022-10-20T20:44:45.257Z,0
2022-10-20T20:45:25.728Z,0
2022-10-20T20:46:06.212Z,0
2022-10-20T20:46:46.740Z,0
2022-10-20T20:47:27.222Z,0
2022-10-20T20:48:07.734Z,0
2022-10-20T20:48:48.196Z,0
2022-10-20T20:49:28.668Z,0
2022-10-20T20:56:15.616Z,0
2022-10-20T20:56:56.058Z,0
2022-10-20T20:57:36.873Z,0
2022-10-20T20:58:17.069Z,0
2022-10-20T20:58:58.201Z,0
2022-10-20T20:59:38.088Z,0
2022-10-20T21:03:23.927Z,0
2022-10-20T21:04:04.461Z,0
2022-10-20T21:04:44.905Z,0
2022-10-20T21:07:27.075Z,0
2022-10-20T21:08:07.568Z,0
2022-10-20T21:08:48.092Z,0
2022-10-20T21:09:28.608Z,0
2022-10-20T21:10:09.120Z,0
2022-10-20T21:10:49.700Z,0
2022-10-20T21:11:30.172Z,0
2022-10-20T21:12:51.292Z,0
2022-10-20T21:13:31.778Z,0
2022-10-20T21:20:18.979Z,0
2022-10-20T21:20:59.781Z,0
2022-10-20T21:21:40.163Z,0
2022-10-20T21:22:20.930Z,0
2022-10-20T21:23:01.423Z,0
2022-10-20T21:23:41.808Z,0
2022-10-20T21:30:27.236Z,0
2022-10-20T21:31:07.664Z,0
2022-10-20T21:31:48.212Z,0
2022-10-20T21:34:26.328Z,0
2022-10-20T21:35:06.835Z,0
2022-10-20T21:35:47.384Z,0
2022-10-20T21:36:27.870Z,0
2022-10-20T21:41:11.320Z,0
2022-10-20T21:41:51.822Z,0
2022-10-20T21:42:32.755Z,0
2022-10-20T21:43:13.238Z,0
2022-10-20T21:43:53.754Z,0
2022-10-20T21:44:34.255Z,0
2022-10-20T21:45:15.539Z,0
2022-10-20T21:45:55.418Z,0
2022-10-20T21:46:35.906Z,0
2022-10-20T21:53:20.993Z,0
2022-10-20T21:54:01.526Z,0
2022-10-20T21:54:42.019Z,0
2022-10-20T21:55:22.474Z,0
2022-10-20T21:56:03.016Z,0
2022-10-20T21:56:43.492Z,0
2022-10-20T21:57:24.052Z,0
2022-10-20T21:58:04.545Z,0
2022-10-20T21:58:45.059Z,0
2022-10-20T21:59:25.577Z,0
2022-10-20T22:02:00.451Z,0
2022-10-20T22:02:40.787Z,0
2022-10-20T22:03:21.369Z,0
2022-10-20T22:07:24.389Z,0
2022-10-20T22:08:04.893Z,0
2022-10-20T22:08:45.419Z,0
2022-10-20T22:09:25.874Z,0
2022-10-20T22:10:06.363Z,0
2022-10-20T22:10:47.003Z,0
2022-10-20T22:11:27.479Z,0
2022-10-20T22:12:08.153Z,0
2022-10-20T22:12:48.656Z,0
2022-10-20T22:20:14.424Z,0
2022-10-20T22:20:54.873Z,0
2022-10-20T22:21:35.399Z,0
2022-10-20T22:22:15.800Z,0
2022-10-20T22:22:56.328Z,0
2022-10-20T22:23:36.823Z,0
2022-10-20T22:24:17.367Z,0
2022-10-20T22:24:57.801Z,0
2022-10-20T22:25:38.321Z,0
2022-10-20T22:26:18.826Z,0
2022-10-20T22:33:04.179Z,0
2022-10-20T22:33:44.881Z,0
2022-10-20T22:34:25.263Z,0
2022-10-20T22:35:05.862Z,0
2022-10-20T22:35:46.423Z,0
2022-10-20T22:36:27.035Z,0
2022-10-20T22:37:07.779Z,0
2022-10-20T22:37:48.312Z,0
2022-10-20T22:38:28.573Z,0
2022-10-20T22:39:09.108Z,0
2022-10-20T22:45:54.444Z,0
2022-10-20T22:46:34.863Z,0
2022-10-20T22:47:15.371Z,0
2022-10-20T22:47:55.845Z,0
2022-10-20T22:48:36.564Z,0
2022-10-20T22:49:17.063Z,0
2022-10-20T22:49:57.436Z,0
2022-10-20T22:50:37.901Z,0
2022-10-20T22:51:18.406Z,0
2022-10-20T22:51:58.913Z,0
2022-10-20T22:58:44.150Z,0
2022-10-20T22:59:24.624Z,0
2022-10-20T23:00:05.353Z,0
2022-10-20T23:00:45.817Z,0
2022-10-20T23:01:26.386Z,0
2022-10-20T23:02:06.758Z,0
2022-10-20T23:02:47.272Z,0
2022-10-20T23:03:27.711Z,0
2022-10-20T23:04:08.328Z,0
2022-10-20T23:04:48.738Z,0
2022-10-20T23:12:14.197Z,0
2022-10-20T23:13:35.158Z,0
2022-10-20T23:14:15.647Z,0
2022-10-20T23:14:56.107Z,0
2022-10-20T23:15:36.578Z,0
2022-10-20T23:16:17.107Z,0
2022-10-20T23:16:57.583Z,0
2022-10-20T23:17:38.320Z,0
2022-10-20T23:18:18.548Z,0
2022-10-20T23:18:59.024Z,0
2022-10-20T23:22:53.326Z,0
2022-10-20T23:23:33.795Z,0
2022-10-20T23:24:14.328Z,0